createdAt,value
2018-02-16T00:01:06.202Z,0
2018-02-16T00:02:20.968Z,0
2018-02-16T00:03:34.975Z,0
2018-02-16T00:04:49.214Z,0
2018-02-16T00:06:03.790Z,0
2018-02-16T00:07:18.540Z,0
2018-02-16T00:08:32.807Z,0
2018-02-16T00:09:47.145Z,0
2018-02-16T00:11:01.372Z,0
2018-02-16T00:12:16.207Z,0
2018-02-16T00:13:30.231Z,0
2018-02-16T00:14:44.197Z,0
2018-02-16T00:15:58.132Z,0
2018-02-16T00:17:12.163Z,0
2018-02-16T00:18:26.597Z,0
2018-02-16T00:19:40.847Z,0
2018-02-16T00:20:54.760Z,0
2018-02-16T00:22:09.493Z,0
2018-02-16T00:23:23.855Z,0
2018-02-16T00:24:38.053Z,0
2018-02-16T00:25:52.224Z,0
2018-02-16T00:27:05.930Z,0
2018-02-16T00:28:20.160Z,0
2018-02-16T00:29:34.344Z,0
2018-02-16T00:30:48.704Z,0
2018-02-16T00:32:02.638Z,0
2018-02-16T00:33:16.618Z,0
2018-02-16T00:34:30.635Z,0
2018-02-16T00:35:44.783Z,0
2018-02-16T00:36:58.442Z,0
2018-02-16T00:38:12.653Z,0
2018-02-16T00:39:27.356Z,0
2018-02-16T00:40:41.795Z,0
2018-02-16T00:41:56.006Z,0
2018-02-16T00:43:10.036Z,0
2018-02-16T00:44:23.724Z,0
2018-02-16T00:45:38.069Z,0
2018-02-16T00:46:51.771Z,0
2018-02-16T00:48:06.034Z,0
2018-02-16T00:49:20.049Z,0
2018-02-16T00:50:34.494Z,0
2018-02-16T00:51:48.470Z,0
2018-02-16T00:53:02.145Z,0
2018-02-16T00:54:16.337Z,0
2018-02-16T00:55:30.547Z,0
2018-02-16T00:56:45.033Z,0
2018-02-16T00:57:58.958Z,0
2018-02-16T00:59:13.179Z,0
2018-02-16T01:00:27.673Z,0
2018-02-16T01:01:41.667Z,0
2018-02-16T01:02:56.130Z,0
2018-02-16T01:04:10.448Z,0
2018-02-16T01:05:24.654Z,0
2018-02-16T01:06:38.832Z,0
2018-02-16T01:07:52.513Z,0
2018-02-16T01:09:06.469Z,0
2018-02-16T01:10:20.624Z,0
2018-02-16T01:11:35.364Z,0
2018-02-16T01:12:49.631Z,0
2018-02-16T01:14:03.843Z,0
2018-02-16T01:15:18.789Z,0
2018-02-16T01:16:32.992Z,0
2018-02-16T01:17:46.935Z,0
2018-02-16T01:19:00.882Z,0
2018-02-16T01:20:15.569Z,0
2018-02-16T01:21:30.007Z,0
2018-02-16T01:22:44.423Z,0
2018-02-16T01:23:58.839Z,0
2018-02-16T01:25:13.114Z,0
2018-02-16T01:26:27.039Z,0
2018-02-16T01:27:41.737Z,0
2018-02-16T01:28:55.991Z,0
2018-02-16T01:30:09.428Z,0
2018-02-16T01:31:23.624Z,0
2018-02-16T01:32:38.060Z,0
2018-02-16T01:33:52.199Z,0
2018-02-16T01:35:06.169Z,0
2018-02-16T01:36:20.634Z,0
2018-02-16T01:37:35.442Z,0
2018-02-16T01:38:49.619Z,0
2018-02-16T01:40:04.015Z,0
2018-02-16T01:41:18.479Z,0
2018-02-16T01:42:32.691Z,0
2018-02-16T01:43:46.381Z,0
2018-02-16T01:45:00.851Z,0
2018-02-16T01:46:15.030Z,0
2018-02-16T01:47:29.458Z,0
2018-02-16T01:48:44.388Z,0
2018-02-16T01:49:58.815Z,0
2018-02-16T01:51:13.278Z,0
2018-02-16T01:52:27.678Z,0
2018-02-16T01:53:41.613Z,0
2018-02-16T01:54:56.378Z,0
2018-02-16T01:56:10.331Z,0
2018-02-16T01:57:24.800Z,0
2018-02-16T01:58:39.233Z,0
2018-02-16T01:59:53.404Z,0
2018-02-16T02:01:07.102Z,0
2018-02-16T02:02:21.516Z,0
2018-02-16T02:03:35.933Z,0
2018-02-16T02:04:49.856Z,0
2018-02-16T02:06:04.078Z,0
2018-02-16T02:07:18.007Z,0
2018-02-16T02:08:32.465Z,0
2018-02-16T02:09:46.869Z,0
2018-02-16T02:11:01.173Z,0
2018-02-16T02:12:15.324Z,0
2018-02-16T02:13:29.755Z,0
2018-02-16T02:14:43.678Z,0
2018-02-16T02:15:58.340Z,0
2018-02-16T02:17:12.279Z,0
2018-02-16T02:18:26.470Z,0
2018-02-16T02:19:40.126Z,0
2018-02-16T02:20:54.322Z,0
2018-02-16T02:22:09.045Z,0
2018-02-16T02:23:23.487Z,0
2018-02-16T02:24:37.927Z,0
2018-02-16T02:25:51.333Z,0
2018-02-16T02:27:05.786Z,0
2018-02-16T02:28:19.466Z,0
2018-02-16T02:29:33.629Z,0
2018-02-16T02:30:47.822Z,0
2018-02-16T02:32:01.751Z,0
2018-02-16T02:33:16.502Z,0
2018-02-16T02:34:30.923Z,0
2018-02-16T02:35:45.093Z,0
2018-02-16T02:36:59.560Z,0
2018-02-16T02:38:13.502Z,0
2018-02-16T02:39:27.466Z,0
2018-02-16T02:40:41.656Z,0
2018-02-16T02:41:56.685Z,0
2018-02-16T02:43:11.404Z,0
2018-02-16T02:44:25.707Z,0
2018-02-16T02:45:40.200Z,0
2018-02-16T02:46:54.880Z,0
2018-02-16T02:48:08.811Z,0
2018-02-16T02:49:23.260Z,0
2018-02-16T02:50:37.449Z,0
2018-02-16T02:51:51.096Z,0
2018-02-16T02:53:06.016Z,0
2018-02-16T02:54:19.988Z,0
2018-02-16T02:55:33.710Z,0
2018-02-16T02:56:48.153Z,0
2018-02-16T02:58:02.565Z,0
2018-02-16T02:59:16.458Z,0
2018-02-16T03:00:30.618Z,0
2018-02-16T03:01:44.331Z,0
2018-02-16T03:02:58.494Z,0
2018-02-16T03:04:12.718Z,0
2018-02-16T03:05:27.157Z,0
2018-02-16T03:06:42.139Z,0
2018-02-16T03:07:56.563Z,0
2018-02-16T03:09:10.731Z,0
2018-02-16T03:10:25.185Z,0
2018-02-16T03:11:40.126Z,0
2018-02-16T03:12:54.596Z,0
2018-02-16T03:14:08.541Z,0
2018-02-16T03:15:22.711Z,0
2018-02-16T03:16:37.107Z,0
2018-02-16T03:17:51.390Z,0
2018-02-16T03:19:05.801Z,0
2018-02-16T03:20:19.480Z,0
2018-02-16T03:21:33.651Z,0
2018-02-16T03:22:48.596Z,0
2018-02-16T03:24:02.771Z,0
2018-02-16T03:25:17.177Z,0
2018-02-16T03:26:31.135Z,0
2018-02-16T03:27:44.551Z,0
2018-02-16T03:28:59.266Z,0
2018-02-16T03:30:13.448Z,0
2018-02-16T03:31:28.175Z,0
2018-02-16T03:32:42.113Z,0
2018-02-16T03:33:56.553Z,0
2018-02-16T03:35:11.030Z,0
2018-02-16T03:36:25.968Z,0
2018-02-16T03:37:40.124Z,0
2018-02-16T03:38:54.809Z,0
2018-02-16T03:40:08.482Z,0
2018-02-16T03:41:22.145Z,0
2018-02-16T03:42:36.567Z,0
2018-02-16T03:43:50.727Z,0
2018-02-16T03:45:05.145Z,0
2018-02-16T03:46:19.576Z,0
2018-02-16T03:47:34.017Z,0
2018-02-16T03:48:48.153Z,0
2018-02-16T03:50:02.339Z,0
2018-02-16T03:51:16.954Z,0
2018-02-16T03:52:30.869Z,0
2018-02-16T03:53:45.049Z,0
2018-02-16T03:54:59.239Z,0
2018-02-16T03:56:13.165Z,0
2018-02-16T03:57:27.114Z,0
2018-02-16T03:58:41.582Z,0
2018-02-16T03:59:55.756Z,0
2018-02-16T04:01:09.934Z,0
2018-02-16T04:02:23.862Z,0
2018-02-16T04:03:37.500Z,0
2018-02-16T04:04:51.680Z,0
2018-02-16T04:06:06.366Z,0
2018-02-16T04:07:20.498Z,0
2018-02-16T04:08:34.684Z,0
2018-02-16T04:09:49.396Z,0
2018-02-16T04:11:04.119Z,0
2018-02-16T04:12:18.306Z,0
2018-02-16T04:13:32.279Z,0
2018-02-16T04:14:46.250Z,0
2018-02-16T04:16:00.660Z,0
2018-02-16T04:17:15.081Z,0
2018-02-16T04:18:29.277Z,0
2018-02-16T04:19:43.238Z,0
2018-02-16T04:20:57.726Z,0
2018-02-16T04:22:11.645Z,0
2018-02-16T04:23:25.314Z,0
2018-02-16T04:24:39.577Z,0
2018-02-16T04:25:53.765Z,0
2018-02-16T04:27:07.932Z,0
2018-02-16T04:28:22.105Z,0
2018-02-16T04:29:36.815Z,0
2018-02-16T04:30:51.242Z,0
2018-02-16T04:32:05.448Z,0
2018-02-16T04:33:20.282Z,0
2018-02-16T04:34:34.500Z,0
2018-02-16T04:35:48.972Z,0
2018-02-16T04:37:02.943Z,0
2018-02-16T04:38:17.493Z,0
2018-02-16T04:39:31.997Z,0
2018-02-16T04:40:46.184Z,0
2018-02-16T04:41:59.606Z,0
2018-02-16T04:43:14.071Z,0
2018-02-16T04:44:28.803Z,0
2018-02-16T04:45:42.478Z,0
2018-02-16T04:46:56.919Z,0
2018-02-16T04:48:11.139Z,0
2018-02-16T04:49:25.839Z,0
2018-02-16T04:50:40.069Z,0
2018-02-16T04:51:54.027Z,0
2018-02-16T04:53:08.472Z,0
2018-02-16T04:54:22.226Z,0
2018-02-16T04:55:36.709Z,0
2018-02-16T04:56:50.914Z,0
2018-02-16T04:58:04.749Z,0
2018-02-16T04:59:18.936Z,0
2018-02-16T05:00:33.462Z,0
2018-02-16T05:01:47.682Z,0
2018-02-16T05:03:01.651Z,0
2018-02-16T05:04:16.369Z,0
2018-02-16T05:05:30.823Z,0
2018-02-16T05:06:45.346Z,0
2018-02-16T05:07:59.527Z,0
2018-02-16T05:09:14.019Z,0
2018-02-16T05:10:28.533Z,0
2018-02-16T05:11:43.015Z,0
2018-02-16T05:12:57.643Z,0
2018-02-16T05:14:11.865Z,0
2018-02-16T05:15:26.438Z,0
2018-02-16T05:16:40.986Z,0
2018-02-16T05:17:55.264Z,0
2018-02-16T05:19:09.795Z,0
2018-02-16T05:20:23.513Z,0
2018-02-16T05:21:37.731Z,0
2018-02-16T05:22:52.204Z,0
2018-02-16T05:24:06.954Z,0
2018-02-16T05:25:21.419Z,0
2018-02-16T05:26:35.634Z,0
2018-02-16T05:27:50.195Z,0
2018-02-16T05:29:05.168Z,0
2018-02-16T05:30:19.380Z,0
2018-02-16T05:31:33.941Z,0
2018-02-16T05:32:48.127Z,0
2018-02-16T05:34:02.572Z,0
2018-02-16T05:35:16.998Z,0
2018-02-16T05:36:31.754Z,0
2018-02-16T05:37:45.729Z,0
2018-02-16T05:39:00.178Z,0
2018-02-16T05:40:13.867Z,0
2018-02-16T05:41:27.577Z,0
2018-02-16T05:42:42.025Z,0
2018-02-16T05:43:56.720Z,0
2018-02-16T05:45:10.914Z,0
2018-02-16T05:46:24.626Z,0
2018-02-16T05:47:38.840Z,0
2018-02-16T05:48:52.523Z,0
2018-02-16T05:50:07.018Z,0
2018-02-16T05:51:21.526Z,0
2018-02-16T05:52:35.727Z,0
2018-02-16T05:53:50.432Z,0
2018-02-16T05:55:04.727Z,0
2018-02-16T05:56:19.126Z,0
2018-02-16T05:57:33.308Z,0
2018-02-16T05:58:47.537Z,0
2018-02-16T06:00:02.050Z,0
2018-02-16T06:01:16.769Z,0
2018-02-16T06:02:30.192Z,0
2018-02-16T06:03:44.415Z,0
2018-02-16T06:04:58.743Z,0
2018-02-16T06:06:12.968Z,0
2018-02-16T06:07:27.213Z,0
2018-02-16T06:08:41.150Z,0
2018-02-16T06:09:55.459Z,0
2018-02-16T06:11:09.441Z,4
2018-02-16T06:12:23.702Z,0
2018-02-16T06:13:38.175Z,4
2018-02-16T06:14:52.429Z,4
2018-02-16T06:16:07.234Z,4
2018-02-16T06:17:21.454Z,4
2018-02-16T06:18:35.984Z,4
2018-02-16T06:19:49.759Z,8
2018-02-16T06:21:03.973Z,8
2018-02-16T06:22:18.776Z,8
2018-02-16T06:23:33.525Z,12
2018-02-16T06:24:47.484Z,12
2018-02-16T06:26:02.306Z,16
2018-02-16T06:27:16.825Z,24
2018-02-16T06:28:31.366Z,20
2018-02-16T06:29:46.153Z,28
2018-02-16T06:31:00.530Z,32
2018-02-16T06:32:15.454Z,36
2018-02-16T06:33:29.932Z,40
2018-02-16T06:34:44.432Z,48
2018-02-16T06:35:58.648Z,48
2018-02-16T06:37:13.166Z,56
2018-02-16T06:38:27.733Z,64
2018-02-16T06:39:41.225Z,72
2018-02-16T06:40:55.535Z,80
2018-02-16T06:42:10.425Z,84
2018-02-16T06:43:24.656Z,96
2018-02-16T06:44:38.926Z,100
2018-02-16T06:45:53.211Z,112
2018-02-16T06:47:07.550Z,124
2018-02-16T06:48:22.043Z,132
2018-02-16T06:49:36.032Z,144
2018-02-16T06:50:50.518Z,152
2018-02-16T06:52:04.842Z,168
2018-02-16T06:53:18.558Z,180
2018-02-16T06:54:33.543Z,200
2018-02-16T06:55:48.163Z,216
2018-02-16T06:57:02.477Z,220
2018-02-16T06:58:17.547Z,244
2018-02-16T06:59:31.268Z,224
2018-02-16T07:00:44.979Z,244
2018-02-16T07:01:59.273Z,236
2018-02-16T07:03:13.758Z,240
2018-02-16T07:04:28.035Z,260
2018-02-16T07:05:42.579Z,260
2018-02-16T07:06:56.895Z,268
2018-02-16T07:08:11.209Z,264
2018-02-16T07:09:25.194Z,264
2018-02-16T07:10:39.501Z,284
2018-02-16T07:11:54.154Z,304
2018-02-16T07:13:08.448Z,300
2018-02-16T07:14:22.940Z,292
2018-02-16T07:15:36.712Z,304
2018-02-16T07:16:51.209Z,352
2018-02-16T07:18:05.778Z,380
2018-02-16T07:19:20.382Z,404
2018-02-16T07:20:34.686Z,428
2018-02-16T07:21:48.384Z,428
2018-02-16T07:23:03.240Z,436
2018-02-16T07:24:17.699Z,440
2018-02-16T07:25:31.987Z,476
2018-02-16T07:26:46.975Z,504
2018-02-16T07:28:01.755Z,528
2018-02-16T07:29:16.289Z,540
2018-02-16T07:30:31.271Z,548
2018-02-16T07:31:45.520Z,544
2018-02-16T07:33:00.043Z,548
2018-02-16T07:34:13.793Z,548
2018-02-16T07:35:27.508Z,568
2018-02-16T07:36:41.286Z,588
2018-02-16T07:37:56.440Z,592
2018-02-16T07:39:11.217Z,600
2018-02-16T07:40:25.770Z,644
2018-02-16T07:41:54.628Z,680
2018-02-16T07:43:08.910Z,752
2018-02-16T07:44:23.833Z,848
2018-02-16T07:45:37.330Z,840
2018-02-16T07:46:52.095Z,848
2018-02-16T07:48:06.359Z,848
2018-02-16T07:49:20.767Z,888
2018-02-16T07:50:35.547Z,960
2018-02-16T07:51:49.538Z,984
2018-02-16T07:53:04.090Z,980
2018-02-16T07:54:18.265Z,1004
2018-02-16T07:55:32.593Z,960
2018-02-16T07:56:47.209Z,1044
2018-02-16T07:58:02.126Z,1084
2018-02-16T07:59:15.661Z,1120
2018-02-16T08:00:30.168Z,1252
2018-02-16T08:01:44.912Z,1296
2018-02-16T08:02:59.505Z,1116
2018-02-16T08:04:14.052Z,1264
2018-02-16T08:05:43.394Z,1264
2018-02-16T08:06:57.185Z,1276
2018-02-16T08:08:11.754Z,1360
2018-02-16T08:09:26.441Z,1172
2018-02-16T08:10:40.817Z,1472
2018-02-16T08:11:54.534Z,1724
2018-02-16T08:13:08.269Z,1348
2018-02-16T08:14:22.505Z,1128
2018-02-16T08:15:37.622Z,1808
2018-02-16T08:16:52.904Z,1536
2018-02-16T08:18:06.689Z,1492
2018-02-16T08:19:21.362Z,1468
2018-02-16T08:20:35.636Z,1324
2018-02-16T08:21:49.632Z,1456
2018-02-16T08:23:04.152Z,1492
2018-02-16T08:24:18.656Z,1344
2018-02-16T08:25:32.466Z,1680
2018-02-16T08:29:29.299Z,1772
2018-02-16T08:34:13.585Z,1636
2018-02-16T08:35:27.534Z,1552
2018-02-16T08:36:41.135Z,2000
2018-02-16T08:37:56.181Z,2116
2018-02-16T08:39:10.978Z,1612
2018-02-16T08:40:25.057Z,2232
2018-02-16T08:41:39.097Z,1892
2018-02-16T08:42:54.171Z,1720
2018-02-16T08:44:08.970Z,1680
2018-02-16T08:45:23.286Z,1684
2018-02-16T08:46:37.470Z,1800
2018-02-16T08:47:51.419Z,1756
2018-02-16T08:49:06.422Z,1888
2018-02-16T08:50:20.927Z,1876
2018-02-16T08:51:35.470Z,2076
2018-02-16T08:52:49.698Z,2148
2018-02-16T08:54:04.311Z,1872
2018-02-16T08:55:18.355Z,1884
2018-02-16T08:56:32.855Z,2100
2018-02-16T08:57:46.851Z,2124
2018-02-16T08:59:00.841Z,1824
2018-02-16T09:00:15.079Z,2132
2018-02-16T09:01:29.906Z,1876
2018-02-16T09:02:44.938Z,2156
2018-02-16T09:03:58.903Z,1992
2018-02-16T09:05:12.627Z,1980
2018-02-16T09:06:26.875Z,2068
2018-02-16T09:07:40.321Z,2368
2018-02-16T09:08:54.694Z,2256
2018-02-16T09:10:08.218Z,2372
2018-02-16T09:11:23.016Z,2512
2018-02-16T09:12:37.088Z,2092
2018-02-16T09:13:51.663Z,2276
2018-02-16T09:15:06.042Z,2272
2018-02-16T09:16:20.296Z,1856
2018-02-16T09:17:34.537Z,2116
2018-02-16T09:18:48.572Z,2404
2018-02-16T09:20:03.165Z,2180
2018-02-16T09:21:17.847Z,2272
2018-02-16T09:22:32.395Z,2252
2018-02-16T09:23:46.700Z,2228
2018-02-16T09:25:00.479Z,2280
2018-02-16T09:26:14.706Z,2412
2018-02-16T09:27:29.562Z,2580
2018-02-16T09:28:44.405Z,2604
2018-02-16T09:29:58.631Z,2504
2018-02-16T09:31:13.145Z,2560
2018-02-16T09:32:27.452Z,2600
2018-02-16T09:33:42.195Z,2740
2018-02-16T09:34:56.650Z,2688
2018-02-16T09:36:10.887Z,2636
2018-02-16T09:37:24.853Z,2676
2018-02-16T09:38:38.817Z,2400
2018-02-16T09:40:07.642Z,2488
2018-02-16T09:41:22.166Z,2792
2018-02-16T09:42:36.973Z,2948
2018-02-16T09:43:51.181Z,2740
2018-02-16T09:45:05.670Z,2892
2018-02-16T09:46:19.694Z,3052
2018-02-16T09:47:33.426Z,3236
2018-02-16T09:48:47.933Z,3140
2018-02-16T09:50:02.252Z,3244
2018-02-16T09:51:16.519Z,2836
2018-02-16T09:52:31.515Z,2692
2018-02-16T09:53:46.008Z,2720
2018-02-16T09:54:59.996Z,2664
2018-02-16T09:56:15.131Z,2540
2018-02-16T09:57:29.485Z,2476
2018-02-16T09:58:43.732Z,2508
2018-02-16T09:59:58.819Z,2388
2018-02-16T10:01:13.058Z,2424
2018-02-16T10:02:27.611Z,2456
2018-02-16T10:03:42.128Z,2644
2018-02-16T10:04:56.399Z,2740
2018-02-16T10:06:10.774Z,2844
2018-02-16T10:07:25.322Z,2736
2018-02-16T10:08:39.630Z,2740
2018-02-16T10:09:53.318Z,2704
2018-02-16T10:11:07.640Z,2652
2018-02-16T10:12:22.060Z,2784
2018-02-16T10:13:35.745Z,3300
2018-02-16T10:14:50.563Z,3348
2018-02-16T10:16:05.406Z,3148
2018-02-16T10:17:19.662Z,3140
2018-02-16T10:18:34.229Z,3020
2018-02-16T10:19:48.946Z,3356
2018-02-16T10:21:02.804Z,3484
2018-02-16T10:22:17.121Z,3056
2018-02-16T10:23:31.727Z,3272
2018-02-16T10:24:46.234Z,3160
2018-02-16T10:26:00.564Z,2788
2018-02-16T10:27:14.981Z,2684
2018-02-16T10:28:29.000Z,2784
2018-02-16T10:29:43.102Z,2844
2018-02-16T10:30:57.374Z,2800
2018-02-16T10:32:11.414Z,2744
2018-02-16T10:33:25.431Z,2736
2018-02-16T10:34:39.722Z,3044
2018-02-16T10:35:53.231Z,2968
2018-02-16T10:37:07.766Z,3336
2018-02-16T10:38:22.342Z,3748
2018-02-16T10:39:36.932Z,3652
2018-02-16T10:40:51.069Z,3528
2018-02-16T10:42:05.660Z,3300
2018-02-16T10:43:20.757Z,3148
2018-02-16T10:44:34.882Z,3000
2018-02-16T10:45:48.873Z,2880
2018-02-16T10:47:03.144Z,2880
2018-02-16T10:48:17.398Z,2848
2018-02-16T10:49:31.597Z,2832
2018-02-16T10:50:45.862Z,2956
2018-02-16T10:51:59.816Z,3020
2018-02-16T10:53:13.831Z,3020
2018-02-16T10:54:42.968Z,3076
2018-02-16T10:55:57.014Z,3160
2018-02-16T10:57:11.515Z,3244
2018-02-16T10:58:25.568Z,3476
2018-02-16T10:59:40.376Z,3524
2018-02-16T11:00:54.685Z,3312
2018-02-16T11:02:09.310Z,3304
2018-02-16T11:03:23.612Z,3304
2018-02-16T11:04:38.089Z,3376
2018-02-16T11:05:52.602Z,3512
2018-02-16T11:07:07.151Z,3280
2018-02-16T11:08:21.500Z,3408
2018-02-16T11:09:50.631Z,3412
2018-02-16T11:11:04.950Z,3872
2018-02-16T11:12:19.242Z,4120
2018-02-16T11:13:33.727Z,4104
2018-02-16T11:14:48.313Z,4076
2018-02-16T11:16:02.287Z,3812
2018-02-16T11:17:16.302Z,3256
2018-02-16T11:18:31.146Z,3556
2018-02-16T11:19:45.170Z,4176
2018-02-16T11:20:59.465Z,3932
2018-02-16T11:22:14.056Z,3744
2018-02-16T11:23:28.577Z,3656
2018-02-16T11:24:43.114Z,3764
2018-02-16T11:25:57.707Z,3824
2018-02-16T11:27:11.953Z,3340
2018-02-16T11:28:26.477Z,3060
2018-02-16T11:29:40.727Z,3072
2018-02-16T11:30:54.597Z,3140
2018-02-16T11:32:08.364Z,3088
2018-02-16T11:33:22.401Z,2824
2018-02-16T11:34:37.066Z,2796
2018-02-16T11:35:50.826Z,2848
2018-02-16T11:37:05.356Z,3248
2018-02-16T11:38:19.337Z,2856
2018-02-16T11:39:33.109Z,2468
2018-02-16T11:40:47.157Z,2248
2018-02-16T11:42:01.663Z,2392
2018-02-16T11:43:15.679Z,2356
2018-02-16T11:44:30.210Z,2876
2018-02-16T11:45:44.716Z,3380
2018-02-16T11:46:59.294Z,3600
2018-02-16T11:48:13.411Z,2972
2018-02-16T11:49:27.955Z,2676
2018-02-16T11:50:41.525Z,2724
2018-02-16T11:51:56.155Z,2720
2018-02-16T11:53:10.254Z,2632
2018-02-16T11:54:24.059Z,2732
2018-02-16T11:55:38.328Z,2684
2018-02-16T11:56:52.964Z,2596
2018-02-16T11:58:07.264Z,2376
2018-02-16T11:59:21.582Z,2256
2018-02-16T12:00:35.634Z,2236
2018-02-16T12:01:49.855Z,2300
2018-02-16T12:03:03.623Z,2408
2018-02-16T12:04:17.663Z,2336
2018-02-16T12:05:32.721Z,2208
2018-02-16T12:06:47.225Z,2220
2018-02-16T12:08:01.703Z,2376
2018-02-16T12:09:16.253Z,2348
2018-02-16T12:10:30.044Z,2160
2018-02-16T12:11:44.764Z,2172
2018-02-16T12:12:59.332Z,2252
2018-02-16T12:14:13.686Z,2220
2018-02-16T12:15:28.709Z,2128
2018-02-16T12:16:43.121Z,2048
2018-02-16T12:17:57.961Z,2000
2018-02-16T12:19:12.630Z,1880
2018-02-16T12:20:26.396Z,1844
2018-02-16T12:21:41.331Z,1948
2018-02-16T12:22:55.550Z,1928
2018-02-16T12:24:10.499Z,2016
2018-02-16T12:25:25.016Z,2260
2018-02-16T12:26:38.872Z,2420
2018-02-16T12:27:53.444Z,2324
2018-02-16T12:29:07.719Z,2276
2018-02-16T12:30:22.242Z,2144
2018-02-16T12:31:37.048Z,2508
2018-02-16T12:32:51.314Z,2216
2018-02-16T12:34:05.932Z,2092
2018-02-16T12:35:20.207Z,2176
2018-02-16T12:36:33.977Z,2016
2018-02-16T12:37:48.835Z,2104
2018-02-16T12:39:03.123Z,2008
2018-02-16T12:40:17.672Z,1812
2018-02-16T12:41:32.021Z,1744
2018-02-16T12:42:45.794Z,1724
2018-02-16T12:44:00.677Z,1724
2018-02-16T12:45:14.980Z,1712
2018-02-16T12:46:29.886Z,1724
2018-02-16T12:47:44.461Z,1740
2018-02-16T12:48:58.788Z,1748
2018-02-16T12:50:12.877Z,1760
2018-02-16T12:51:27.514Z,1760
2018-02-16T12:52:41.800Z,1760
2018-02-16T12:53:56.318Z,1764
2018-02-16T12:55:10.337Z,1760
2018-02-16T12:56:24.361Z,1748
2018-02-16T12:57:38.383Z,1752
2018-02-16T12:58:52.639Z,1720
2018-02-16T13:00:07.021Z,1756
2018-02-16T13:01:21.371Z,1688
2018-02-16T13:02:36.034Z,1744
2018-02-16T13:03:50.567Z,1748
2018-02-16T13:05:05.165Z,1760
2018-02-16T13:06:19.439Z,1768
2018-02-16T13:07:34.356Z,1824
2018-02-16T13:08:48.965Z,1924
2018-02-16T13:10:03.268Z,1976
2018-02-16T13:11:17.638Z,1916
2018-02-16T13:12:31.925Z,1840
2018-02-16T13:13:46.221Z,1788
2018-02-16T13:15:00.386Z,1740
2018-02-16T13:16:15.001Z,1716
2018-02-16T13:17:28.776Z,1716
2018-02-16T13:18:43.178Z,1712
2018-02-16T13:19:57.141Z,1712
2018-02-16T13:21:11.739Z,1712
2018-02-16T13:22:25.864Z,1720
2018-02-16T13:23:39.901Z,1716
2018-02-16T13:24:54.398Z,1708
2018-02-16T13:26:09.091Z,1704
2018-02-16T13:27:22.935Z,1704
2018-02-16T13:28:37.778Z,1704
2018-02-16T13:29:52.395Z,1708
2018-02-16T13:31:06.523Z,1716
2018-02-16T13:32:21.654Z,1708
2018-02-16T13:33:35.962Z,1708
2018-02-16T13:34:50.734Z,1704
2018-02-16T13:36:05.737Z,1704
2018-02-16T13:37:19.905Z,1692
2018-02-16T13:38:34.571Z,1692
2018-02-16T13:39:49.316Z,1692
2018-02-16T13:41:03.435Z,1680
2018-02-16T13:42:17.493Z,1676
2018-02-16T13:43:32.448Z,1672
2018-02-16T13:44:46.801Z,1676
2018-02-16T13:46:01.544Z,1676
2018-02-16T13:47:15.789Z,1676
2018-02-16T13:48:30.549Z,1676
2018-02-16T13:49:45.403Z,1680
2018-02-16T13:51:00.032Z,1680
2018-02-16T13:52:14.346Z,1688
2018-02-16T13:53:28.947Z,1724
2018-02-16T13:54:43.287Z,1720
2018-02-16T13:55:57.368Z,1692
2018-02-16T13:57:11.484Z,1680
2018-02-16T13:58:25.317Z,1684
2018-02-16T13:59:40.014Z,1680
2018-02-16T14:00:54.535Z,1668
2018-02-16T14:02:09.219Z,1668
2018-02-16T14:03:23.549Z,1664
2018-02-16T14:04:37.843Z,1672
2018-02-16T14:05:52.976Z,1680
2018-02-16T14:07:07.529Z,1672
2018-02-16T14:08:21.866Z,1668
2018-02-16T14:09:36.823Z,1676
2018-02-16T14:10:51.513Z,1688
2018-02-16T14:12:05.854Z,1708
2018-02-16T14:13:20.869Z,1740
2018-02-16T14:14:35.837Z,1768
2018-02-16T14:15:50.706Z,1776
2018-02-16T14:17:04.781Z,1780
2018-02-16T14:18:19.658Z,1776
2018-02-16T14:19:34.344Z,1756
2018-02-16T14:20:49.212Z,1756
2018-02-16T14:22:03.202Z,1748
2018-02-16T14:23:17.704Z,1752
2018-02-16T14:24:32.076Z,1736
2018-02-16T14:25:46.488Z,1728
2018-02-16T14:27:00.969Z,1708
2018-02-16T14:28:15.324Z,1704
2018-02-16T14:29:28.966Z,1712
2018-02-16T14:30:43.713Z,1704
2018-02-16T14:31:58.420Z,1716
2018-02-16T14:33:12.547Z,1724
2018-02-16T14:34:27.327Z,1748
2018-02-16T14:35:41.947Z,1776
2018-02-16T14:36:56.291Z,1844
2018-02-16T14:38:11.210Z,1980
2018-02-16T14:39:25.241Z,2104
2018-02-16T14:40:40.395Z,2260
2018-02-16T14:41:54.529Z,2480
2018-02-16T14:43:08.820Z,2684
2018-02-16T14:44:23.751Z,2740
2018-02-16T14:45:38.402Z,2788
2018-02-16T14:46:53.014Z,2828
2018-02-16T14:48:07.457Z,2960
2018-02-16T14:49:21.556Z,3188
2018-02-16T14:50:35.690Z,3348
2018-02-16T14:51:50.021Z,3224
2018-02-16T14:53:04.629Z,2984
2018-02-16T14:54:19.583Z,2636
2018-02-16T14:55:34.180Z,2500
2018-02-16T14:56:48.817Z,2344
2018-02-16T14:58:03.070Z,2056
2018-02-16T14:59:18.454Z,1912
2018-02-16T15:00:32.708Z,1708
2018-02-16T15:01:46.548Z,1628
2018-02-16T15:03:01.054Z,1756
2018-02-16T15:04:15.410Z,1776
2018-02-16T15:05:30.054Z,1768
2018-02-16T15:06:44.676Z,1680
2018-02-16T15:07:58.879Z,1732
2018-02-16T15:09:13.448Z,1688
2018-02-16T15:10:27.638Z,1608
2018-02-16T15:11:42.244Z,1592
2018-02-16T15:12:56.915Z,1564
2018-02-16T15:14:11.877Z,1460
2018-02-16T15:15:26.247Z,1392
2018-02-16T15:16:41.415Z,1308
2018-02-16T15:17:55.336Z,1288
2018-02-16T15:19:10.064Z,1228
2018-02-16T15:20:25.031Z,1152
2018-02-16T15:21:39.508Z,1092
2018-02-16T15:22:54.193Z,976
2018-02-16T15:24:08.653Z,1016
2018-02-16T15:25:23.465Z,948
2018-02-16T15:26:52.781Z,856
2018-02-16T15:28:07.557Z,848
2018-02-16T15:29:22.074Z,840
2018-02-16T15:30:36.792Z,828
2018-02-16T15:31:51.468Z,824
2018-02-16T15:33:06.414Z,820
2018-02-16T15:34:21.049Z,808
2018-02-16T15:35:35.466Z,816
2018-02-16T15:36:50.043Z,792
2018-02-16T15:38:03.846Z,772
2018-02-16T15:39:17.870Z,760
2018-02-16T15:40:32.473Z,752
2018-02-16T15:41:46.753Z,748
2018-02-16T15:43:01.086Z,748
2018-02-16T15:44:15.379Z,780
2018-02-16T15:45:29.957Z,800
2018-02-16T15:46:44.342Z,784
2018-02-16T15:47:58.979Z,752
2018-02-16T15:49:13.764Z,716
2018-02-16T15:50:28.133Z,712
2018-02-16T15:51:42.965Z,696
2018-02-16T15:52:57.062Z,680
2018-02-16T15:54:11.378Z,656
2018-02-16T15:55:25.534Z,632
2018-02-16T15:56:39.875Z,636
2018-02-16T15:57:54.677Z,620
2018-02-16T15:59:09.023Z,592
2018-02-16T16:00:23.406Z,588
2018-02-16T16:01:37.808Z,572
2018-02-16T16:02:51.626Z,552
2018-02-16T16:04:06.229Z,524
2018-02-16T16:05:20.337Z,508
2018-02-16T16:06:41.968Z,488
2018-02-16T16:08:09.724Z,472
2018-02-16T16:09:39.186Z,460
2018-02-16T16:10:56.059Z,452
2018-02-16T16:12:09.898Z,444
2018-02-16T16:13:24.206Z,428
2018-02-16T16:14:38.780Z,416
2018-02-16T16:15:53.414Z,404
2018-02-16T16:17:08.042Z,416
2018-02-16T16:18:22.515Z,400
2018-02-16T16:19:36.604Z,372
2018-02-16T16:20:50.984Z,356
2018-02-16T16:22:05.477Z,348
2018-02-16T16:23:19.572Z,336
2018-02-16T16:24:33.644Z,312
2018-02-16T16:25:48.362Z,296
2018-02-16T16:27:02.971Z,272
2018-02-16T16:28:17.955Z,256
2018-02-16T16:29:32.564Z,236
2018-02-16T16:33:14.984Z,188
2018-02-16T16:34:32.698Z,172
2018-02-16T16:35:47.979Z,152
2018-02-16T16:37:02.556Z,140
2018-02-16T16:38:17.290Z,128
2018-02-16T16:39:31.999Z,116
2018-02-16T16:40:46.525Z,104
2018-02-16T16:42:02.115Z,92
2018-02-16T16:43:15.834Z,84
2018-02-16T16:44:30.535Z,76
2018-02-16T16:45:45.145Z,68
2018-02-16T16:46:59.998Z,60
2018-02-16T16:48:14.508Z,52
2018-02-16T16:49:29.308Z,44
2018-02-16T16:50:43.808Z,40
2018-02-16T16:51:58.330Z,32
2018-02-16T16:53:12.870Z,28
2018-02-16T16:54:27.140Z,24
2018-02-16T16:55:42.207Z,20
2018-02-16T16:56:57.222Z,16
2018-02-16T16:58:12.258Z,12
2018-02-16T16:59:27.058Z,8
2018-02-16T17:00:41.308Z,8
2018-02-16T17:01:55.269Z,4
2018-02-16T17:03:10.128Z,4
2018-02-16T17:04:25.380Z,4
2018-02-16T17:05:39.571Z,4
2018-02-16T17:06:54.355Z,4
2018-02-16T17:08:09.407Z,4
2018-02-16T17:09:24.296Z,0
2018-02-16T17:10:39.460Z,0
2018-02-16T17:11:53.722Z,0
2018-02-16T17:13:08.689Z,0
2018-02-16T17:14:23.115Z,0
2018-02-16T17:15:37.596Z,0
2018-02-16T17:16:52.586Z,0
2018-02-16T17:18:07.272Z,0
2018-02-16T17:19:21.010Z,0
2018-02-16T17:20:36.166Z,0
2018-02-16T17:21:51.388Z,0
2018-02-16T17:23:06.669Z,0
2018-02-16T17:24:21.273Z,0
2018-02-16T17:25:35.939Z,0
2018-02-16T17:26:51.270Z,0
2018-02-16T17:28:06.288Z,0
2018-02-16T17:29:21.443Z,0